Time;durP1;ratioP1;P1;durP2;ratioP2;P2;SDS_P1;SDS_P2;PMS_P1;PMS_P2;Temp;Humidity;BMP_temperature;BMP_pressure;BME280_temperature;BME280_humidity;BME280_pressure;Samples;Min_cycle;Max_cycle;Signal;HPM_P1;HPM_P2
2022/03/29 00:01:08;;;;;;;14.68;5.68;;;;;;;;;;5088881;28;20068;-62
2022/03/29 00:03:41;;;;;;;15.95;6.20;;;;;;;;;;5087644;28;20094;-62
2022/03/29 00:06:10;;;;;;;15.80;5.78;;;;;;;;;;5088092;28;20059;-62
2022/03/29 00:08:38;;;;;;;14.88;6.13;;;;;;;;;;5088372;28;20135;-62
2022/03/29 00:11:09;;;;;;;16.67;6.57;;;;;;;;;;5088242;28;20131;-63
2022/03/29 00:13:37;;;;;;;14.23;6.25;;;;;;;;;;5089058;28;20136;-62
2022/03/29 00:16:09;;;;;;;18.23;6.78;;;;;;;;;;5091884;28;20158;-61
2022/03/29 00:18:37;;;;;;;13.27;6.47;;;;;;;;;;5090213;28;20051;-62
2022/03/29 00:21:10;;;;;;;13.38;6.18;;;;;;;;;;5087613;28;20049;-62
2022/03/29 00:23:38;;;;;;;16.88;6.05;;;;;;;;;;5092241;28;20387;-62
2022/03/29 00:26:09;;;;;;;11.15;6.20;;;;;;;;;;5091211;28;20131;-62
2022/03/29 00:28:37;;;;;;;13.52;6.28;;;;;;;;;;5091924;28;20127;-63
2022/03/29 00:31:08;;;;;;;12.50;5.90;;;;;;;;;;5090194;28;20140;-62
2022/03/29 00:33:37;;;;;;;14.35;6.90;;;;;;;;;;5092452;28;20059;-63
2022/03/29 00:36:12;;;;;;;14.45;6.60;;;;;;;;;;5088988;28;20166;-63
2022/03/29 00:38:41;;;;;;;12.30;6.28;;;;;;;;;;5083431;28;20048;-63
2022/03/29 00:41:09;;;;;;;16.60;6.25;;;;;;;;;;5091667;28;20130;-63
2022/03/29 00:43:37;;;;;;;15.02;6.68;;;;;;;;;;5091973;28;20097;-63
2022/03/29 00:46:09;;;;;;;14.73;6.38;;;;;;;;;;5092045;28;20119;-65
2022/03/29 00:48:38;;;;;;;18.63;6.68;;;;;;;;;;5093868;28;20074;-63
2022/03/29 00:51:10;;;;;;;10.13;5.43;;;;;;;;;;5092121;28;20040;-62
2022/03/29 00:53:39;;;;;;;14.27;5.80;;;;;;;;;;5089717;28;20127;-63
2022/03/29 00:56:11;;;;;;;16.70;5.93;;;;;;;;;;5090995;28;20048;-63
2022/03/29 00:58:39;;;;;;;13.02;6.07;;;;;;;;;;5087740;28;20048;-63
2022/03/29 01:01:11;;;;;;;14.40;5.85;;;;;;;;;;5091768;28;20147;-63
2022/03/29 01:03:42;;;;;;;14.48;6.20;;;;;;;;;;5089911;28;20057;-63
2022/03/29 01:06:10;;;;;;;22.25;7.00;;;;;;;;;;5090788;28;20048;-63
2022/03/29 01:08:40;;;;;;;13.85;6.57;;;;;;;;;;5091008;28;20578;-63
2022/03/29 01:11:12;;;;;;;16.30;6.35;;;;;;;;;;5090596;28;20075;-63
2022/03/29 01:13:41;;;;;;;14.43;5.38;;;;;;;;;;5088650;28;20040;-63
2022/03/29 01:19:07;;;;;;;13.90;6.95;;;;;;;;;;5053628;28;20127;-63
2022/03/29 01:21:36;;;;;;;14.30;6.32;;;;;;;;;;5091313;28;20502;-62
2022/03/29 01:24:08;;;;;;;17.42;6.32;;;;;;;;;;5092016;28;20079;-63
2022/03/29 01:26:36;;;;;;;14.43;7.25;;;;;;;;;;5087257;28;20087;-63
2022/03/29 01:29:05;;;;;;;11.77;6.10;;;;;;;;;;5086375;28;20555;-62
2022/03/29 01:31:34;;;;;;;13.93;6.07;;;;;;;;;;5087695;28;20040;-63
2022/03/29 01:34:02;;;;;;;17.17;7.20;;;;;;;;;;5089379;28;20044;-64
2022/03/29 01:36:30;;;;;;;17.35;6.43;;;;;;;;;;5090914;28;20134;-64
2022/03/29 01:38:59;;;;;;;13.05;6.63;;;;;;;;;;5091127;28;20135;-64
2022/03/29 01:41:30;;;;;;;15.88;6.57;;;;;;;;;;5097575;28;20130;-63
2022/03/29 01:43:59;;;;;;;18.77;7.45;;;;;;;;;;5089813;28;20044;-64
2022/03/29 01:46:28;;;;;;;14.55;6.47;;;;;;;;;;5087002;28;20491;-63
2022/03/29 01:48:57;;;;;;;13.05;6.43;;;;;;;;;;5091584;28;20040;-63
2022/03/29 01:51:25;;;;;;;16.38;6.68;;;;;;;;;;5090070;28;20050;-63
2022/03/29 01:53:54;;;;;;;17.23;7.65;;;;;;;;;;5088583;28;20044;-63
2022/03/29 01:56:23;;;;;;;12.73;6.13;;;;;;;;;;5087814;28;20119;-64
2022/03/29 01:58:53;;;;;;;17.58;6.55;;;;;;;;;;5087848;28;20048;-62
2022/03/29 02:01:21;;;;;;;10.43;5.95;;;;;;;;;;5085609;28;20058;-63
2022/03/29 02:03:49;;;;;;;15.25;6.50;;;;;;;;;;5088998;28;20450;-62
2022/03/29 02:06:18;;;;;;;18.70;7.20;;;;;;;;;;5091658;28;20493;-65
2022/03/29 02:08:46;;;;;;;11.95;6.30;;;;;;;;;;5090163;28;20044;-63
2022/03/29 02:11:15;;;;;;;11.15;6.30;;;;;;;;;;5091972;28;20127;-63
2022/03/29 02:13:47;;;;;;;11.85;5.68;;;;;;;;;;5089108;28;20048;-63
2022/03/29 02:16:17;;;;;;;17.85;6.93;;;;;;;;;;5090533;28;20075;-63
2022/03/29 02:18:45;;;;;;;15.80;7.20;;;;;;;;;;5090275;28;20047;-63
2022/03/29 02:21:15;;;;;;;15.52;7.68;;;;;;;;;;5088428;28;20087;-62
2022/03/29 02:23:44;;;;;;;14.57;6.53;;;;;;;;;;5088574;28;20127;-63
2022/03/29 02:26:12;;;;;;;10.95;6.05;;;;;;;;;;5091838;28;20113;-62
2022/03/29 02:28:40;;;;;;;14.63;6.47;;;;;;;;;;5091192;28;20048;-63
2022/03/29 02:31:10;;;;;;;18.20;6.65;;;;;;;;;;5082353;28;20075;-65
2022/03/29 02:33:40;;;;;;;19.58;7.28;;;;;;;;;;5090193;28;20044;-65
2022/03/29 02:36:09;;;;;;;17.13;7.05;;;;;;;;;;5092637;28;20044;-62
2022/03/29 02:38:38;;;;;;;16.15;6.70;;;;;;;;;;5082652;28;20151;-63
2022/03/29 02:41:09;;;;;;;15.25;6.68;;;;;;;;;;5089651;28;20077;-62
2022/03/29 02:43:38;;;;;;;15.50;7.00;;;;;;;;;;5090430;28;20044;-64
2022/03/29 02:46:09;;;;;;;17.48;7.22;;;;;;;;;;5087126;28;20048;-65
2022/03/29 02:48:39;;;;;;;16.33;6.85;;;;;;;;;;5086027;28;20115;-63
2022/03/29 02:51:10;;;;;;;16.60;7.28;;;;;;;;;;5082548;28;20048;-65
2022/03/29 02:53:39;;;;;;;11.98;6.05;;;;;;;;;;5075349;28;20386;-65
2022/03/29 02:56:10;;;;;;;19.92;7.32;;;;;;;;;;5081340;28;20052;-62
2022/03/29 02:58:38;;;;;;;18.00;6.95;;;;;;;;;;5083810;28;20099;-62
2022/03/29 03:01:10;;;;;;;15.32;7.38;;;;;;;;;;5089233;28;20067;-62
2022/03/29 03:03:40;;;;;;;21.73;7.63;;;;;;;;;;5090607;28;20130;-62
2022/03/29 03:06:08;;;;;;;17.92;7.20;;;;;;;;;;5088509;28;20432;-63
2022/03/29 03:08:36;;;;;;;18.02;7.20;;;;;;;;;;5089159;28;20072;-63
2022/03/29 03:11:08;;;;;;;17.08;7.13;;;;;;;;;;5083274;28;20045;-63
2022/03/29 03:13:36;;;;;;;20.40;8.35;;;;;;;;;;5086238;28;20607;-62
2022/03/29 03:16:12;;;;;;;14.80;7.25;;;;;;;;;;5085789;28;20187;-64
2022/03/29 03:18:42;;;;;;;19.85;7.43;;;;;;;;;;5088294;28;20048;-63
2022/03/29 03:21:10;;;;;;;14.98;7.13;;;;;;;;;;5084991;28;20070;-63
2022/03/29 03:23:38;;;;;;;14.70;6.70;;;;;;;;;;5088542;28;20138;-63
2022/03/29 03:26:10;;;;;;;14.75;6.93;;;;;;;;;;5079766;28;20078;-64
2022/03/29 03:28:38;;;;;;;18.80;7.80;;;;;;;;;;5085765;28;20131;-63
2022/03/29 03:31:10;;;;;;;18.00;6.97;;;;;;;;;;5088565;28;20079;-63
2022/03/29 03:33:38;;;;;;;16.50;6.90;;;;;;;;;;5089291;28;20040;-63
2022/03/29 03:36:11;;;;;;;18.27;6.97;;;;;;;;;;5088711;28;20469;-63
2022/03/29 03:38:39;;;;;;;22.55;8.15;;;;;;;;;;5078953;28;20036;-63
2022/03/29 03:41:11;;;;;;;20.65;6.57;;;;;;;;;;5070402;28;20102;-64
2022/03/29 03:43:39;;;;;;;15.77;7.35;;;;;;;;;;5083189;28;20088;-63
2022/03/29 03:46:10;;;;;;;22.33;6.35;;;;;;;;;;5065629;28;20044;-63
2022/03/29 03:48:39;;;;;;;16.98;7.35;;;;;;;;;;5069826;28;20046;-63
2022/03/29 03:51:11;;;;;;;16.70;6.68;;;;;;;;;;5074929;28;20067;-63
2022/03/29 03:53:40;;;;;;;19.00;7.57;;;;;;;;;;5082765;28;20522;-64
2022/03/29 03:56:08;;;;;;;16.60;6.60;;;;;;;;;;5076655;28;20048;-63
2022/03/29 03:58:36;;;;;;;15.93;7.28;;;;;;;;;;5065868;28;20124;-65
2022/03/29 04:01:12;;;;;;;15.50;6.65;;;;;;;;;;5064460;28;20044;-63
2022/03/29 04:03:41;;;;;;;16.42;6.43;;;;;;;;;;5071154;28;20102;-64
2022/03/29 04:06:09;;;;;;;18.15;7.05;;;;;;;;;;5078470;28;20075;-63
2022/03/29 04:08:39;;;;;;;17.00;7.10;;;;;;;;;;5076911;28;20135;-63
2022/03/29 04:11:10;;;;;;;18.92;7.22;;;;;;;;;;5064663;28;20152;-63
2022/03/29 04:13:38;;;;;;;22.10;7.30;;;;;;;;;;5079199;28;20486;-63
2022/03/29 04:16:09;;;;;;;19.52;7.15;;;;;;;;;;5075428;28;20041;-64
2022/03/29 04:18:38;;;;;;;21.35;6.97;;;;;;;;;;5073434;28;20060;-63
2022/03/29 04:21:11;;;;;;;17.48;6.80;;;;;;;;;;5074765;28;20135;-63
2022/03/29 04:23:41;;;;;;;16.45;6.78;;;;;;;;;;5071562;28;20095;-63
2022/03/29 04:26:12;;;;;;;17.40;7.05;;;;;;;;;;5075543;28;20076;-63
2022/03/29 04:28:40;;;;;;;20.80;7.15;;;;;;;;;;5077399;28;20654;-63
2022/03/29 04:31:09;;;;;;;18.17;7.50;;;;;;;;;;5060361;28;20138;-63
2022/03/29 04:33:37;;;;;;;14.20;6.72;;;;;;;;;;5071814;28;20052;-63
2022/03/29 04:36:11;;;;;;;25.30;7.55;;;;;;;;;;5067452;28;20132;-63
2022/03/29 04:38:41;;;;;;;24.10;7.67;;;;;;;;;;5079689;28;20484;-63
2022/03/29 04:41:10;;;;;;;21.27;8.35;;;;;;;;;;5093326;28;20473;-63
2022/03/29 04:43:38;;;;;;;17.27;6.75;;;;;;;;;;5093162;28;20062;-63
2022/03/29 04:46:10;;;;;;;19.25;7.07;;;;;;;;;;5092832;28;20103;-62
2022/03/29 04:48:38;;;;;;;20.02;6.65;;;;;;;;;;5089578;28;20467;-64
2022/03/29 04:51:12;;;;;;;19.35;7.57;;;;;;;;;;5091457;28;20044;-63
2022/03/29 04:53:42;;;;;;;18.30;7.63;;;;;;;;;;5086015;28;20037;-63
2022/03/29 04:56:10;;;;;;;18.30;6.90;;;;;;;;;;5090037;28;20128;-63
2022/03/29 04:58:39;;;;;;;16.85;6.63;;;;;;;;;;5091354;28;20044;-63
2022/03/29 05:01:10;;;;;;;19.95;7.68;;;;;;;;;;5089281;28;20051;-63
2022/03/29 05:03:38;;;;;;;22.70;7.60;;;;;;;;;;5092185;28;20058;-62
2022/03/29 05:06:10;;;;;;;17.75;6.68;;;;;;;;;;5086637;28;20036;-63
2022/03/29 05:08:38;;;;;;;22.13;7.35;;;;;;;;;;5091689;28;20514;-63
2022/03/29 05:11:14;;;;;;;15.43;6.32;;;;;;;;;;5086645;28;20150;-65
2022/03/29 05:13:42;;;;;;;15.32;6.80;;;;;;;;;;5083057;28;20363;-64
2022/03/29 05:16:10;;;;;;;13.55;6.53;;;;;;;;;;5086215;28;20534;-63
2022/03/29 05:18:39;;;;;;;16.67;5.97;;;;;;;;;;5085989;28;20044;-63
2022/03/29 05:21:12;;;;;;;12.35;6.22;;;;;;;;;;5087633;28;20060;-63
2022/03/29 05:23:40;;;;;;;18.38;6.93;;;;;;;;;;5087684;28;20481;-64
2022/03/29 05:26:08;;;;;;;15.60;7.25;;;;;;;;;;5088251;28;20485;-63
2022/03/29 05:28:38;;;;;;;17.27;6.97;;;;;;;;;;5085672;28;20388;-63
2022/03/29 05:31:10;;;;;;;19.40;7.13;;;;;;;;;;5085822;28;20044;-63
2022/03/29 05:33:38;;;;;;;18.42;7.45;;;;;;;;;;5084818;28;20117;-63
2022/03/29 05:36:10;;;;;;;14.45;6.43;;;;;;;;;;5081470;28;20076;-63
2022/03/29 05:38:38;;;;;;;15.68;7.28;;;;;;;;;;5082716;28;20444;-63
2022/03/29 05:41:13;;;;;;;17.40;6.88;;;;;;;;;;5086773;28;20083;-63
2022/03/29 05:43:43;;;;;;;14.77;6.57;;;;;;;;;;5082817;28;20083;-63
2022/03/29 05:48:59;;;;;;;15.10;7.05;;;;;;;;;;5081888;28;20397;-63
2022/03/29 05:51:29;;;;;;;16.45;6.97;;;;;;;;;;5084416;28;20483;-63
2022/03/29 05:53:58;;;;;;;20.17;6.63;;;;;;;;;;5083644;28;20348;-63
2022/03/29 05:56:26;;;;;;;16.13;6.70;;;;;;;;;;5087808;28;20079;-63
2022/03/29 05:58:56;;;;;;;20.92;7.40;;;;;;;;;;5086193;28;20131;-63
2022/03/29 06:01:25;;;;;;;18.00;6.55;;;;;;;;;;5086764;28;20140;-63
2022/03/29 06:03:53;;;;;;;19.65;6.13;;;;;;;;;;5087214;28;20509;-65
2022/03/29 06:06:22;;;;;;;17.05;6.07;;;;;;;;;;5088321;28;20147;-63
2022/03/29 06:08:50;;;;;;;16.42;6.88;;;;;;;;;;5087822;28;20139;-63
2022/03/29 06:11:19;;;;;;;16.85;6.88;;;;;;;;;;5085877;28;20130;-63
2022/03/29 06:13:47;;;;;;;15.50;6.97;;;;;;;;;;5087796;28;20582;-64
2022/03/29 06:16:17;;;;;;;15.18;7.20;;;;;;;;;;5079228;28;20055;-63
2022/03/29 06:18:46;;;;;;;19.98;7.22;;;;;;;;;;5085724;28;20055;-63
2022/03/29 06:21:16;;;;;;;18.70;7.70;;;;;;;;;;5087729;28;20095;-64
2022/03/29 06:23:44;;;;;;;17.65;6.55;;;;;;;;;;5087553;28;20110;-64
2022/03/29 06:26:18;;;;;;;16.35;6.65;;;;;;;;;;5089962;28;20135;-63
2022/03/29 06:28:46;;;;;;;19.83;6.63;;;;;;;;;;5091804;28;20487;-63
2022/03/29 06:31:14;;;;;;;18.20;7.30;;;;;;;;;;5091180;28;20113;-63
2022/03/29 06:33:44;;;;;;;15.55;6.43;;;;;;;;;;5088377;28;20048;-64
2022/03/29 06:36:12;;;;;;;22.65;7.30;;;;;;;;;;5084921;28;20040;-64
2022/03/29 06:38:41;;;;;;;17.77;6.85;;;;;;;;;;5090450;28;20127;-63
2022/03/29 06:41:13;;;;;;;21.38;7.10;;;;;;;;;;5091658;28;20040;-64
2022/03/29 06:43:42;;;;;;;14.13;6.32;;;;;;;;;;5090735;28;20559;-65
2022/03/29 06:46:10;;;;;;;26.10;7.38;;;;;;;;;;5087109;28;20040;-65
2022/03/29 06:48:41;;;;;;;19.88;7.00;;;;;;;;;;5083948;28;20059;-65
2022/03/29 06:51:13;;;;;;;16.40;6.53;;;;;;;;;;5089286;28;20478;-65
2022/03/29 06:53:42;;;;;;;12.80;5.95;;;;;;;;;;5081778;28;20159;-65
2022/03/29 06:56:11;;;;;;;18.17;6.85;;;;;;;;;;5090984;28;20138;-65
2022/03/29 06:58:40;;;;;;;17.25;7.25;;;;;;;;;;5085678;28;20080;-65
2022/03/29 07:01:11;;;;;;;18.67;7.20;;;;;;;;;;5088646;28;20048;-65
2022/03/29 07:03:40;;;;;;;17.00;7.10;;;;;;;;;;5085302;28;20041;-66
2022/03/29 07:06:13;;;;;;;22.83;7.63;;;;;;;;;;5087140;28;20051;-65
2022/03/29 07:11:16;;;;;;;21.23;7.82;;;;;;;;;;5086605;28;20048;-66
2022/03/29 07:11:49;;;;;;;11.10;6.07;;;;;;;;;;5076008;28;20039;-64
2022/03/29 07:14:18;;;;;;;24.45;7.47;;;;;;;;;;5089021;28;20380;-63
2022/03/29 07:16:46;;;;;;;14.25;7.00;;;;;;;;;;5089226;28;20040;-63
2022/03/29 07:19:15;;;;;;;17.13;7.28;;;;;;;;;;5087453;28;20047;-64
2022/03/29 07:21:46;;;;;;;21.35;7.18;;;;;;;;;;5087737;28;20044;-64
2022/03/29 07:24:15;;;;;;;16.25;7.70;;;;;;;;;;5094285;28;20135;-64
2022/03/29 07:26:44;;;;;;;15.73;7.10;;;;;;;;;;5093508;28;20517;-64
2022/03/29 07:29:18;;;;;;;15.25;7.35;;;;;;;;;;5095003;28;20048;-63
2022/03/29 07:31:46;;;;;;;19.83;7.13;;;;;;;;;;5093354;28;20504;-63
2022/03/29 07:34:15;;;;;;;18.08;7.63;;;;;;;;;;5091947;28;20056;-63
2022/03/29 07:36:47;;;;;;;22.02;7.53;;;;;;;;;;5090333;28;20818;-64
2022/03/29 07:39:15;;;;;;;15.73;6.85;;;;;;;;;;5092082;28;20106;-64
2022/03/29 07:41:44;;;;;;;19.58;7.85;;;;;;;;;;5094745;28;20534;-63
2022/03/29 07:44:14;;;;;;;20.50;7.50;;;;;;;;;;5089032;28;20048;-64
2022/03/29 07:46:43;;;;;;;19.48;7.38;;;;;;;;;;5093627;28;20490;-64
2022/03/29 07:49:12;;;;;;;18.77;7.10;;;;;;;;;;5093710;28;20070;-63
2022/03/29 07:52:02;;;;;;;14.07;6.55;;;;;;;;;;5095577;28;20583;-64
2022/03/29 07:54:31;;;;;;;15.95;7.00;;;;;;;;;;5096575;28;20044;-63
2022/03/29 07:56:59;;;;;;;14.80;7.95;;;;;;;;;;5094458;28;20087;-64
2022/03/29 07:59:28;;;;;;;19.08;7.63;;;;;;;;;;5094653;28;20075;-65
2022/03/29 08:01:56;;;;;;;20.33;7.93;;;;;;;;;;5090211;28;20424;-64
2022/03/29 08:04:25;;;;;;;17.80;7.47;;;;;;;;;;5096547;28;20055;-65
2022/03/29 08:06:54;;;;;;;20.33;8.23;;;;;;;;;;5095806;28;20048;-63
2022/03/29 08:09:23;;;;;;;16.65;7.60;;;;;;;;;;5092764;28;20494;-63
2022/03/29 08:11:52;;;;;;;16.75;7.40;;;;;;;;;;5094658;28;20105;-64
2022/03/29 08:14:20;;;;;;;15.82;7.20;;;;;;;;;;5095741;28;20131;-63
2022/03/29 08:16:49;;;;;;;16.23;7.00;;;;;;;;;;5092283;28;20048;-64
2022/03/29 08:19:18;;;;;;;17.25;6.70;;;;;;;;;;5094612;28;20491;-65
2022/03/29 08:21:49;;;;;;;17.63;7.68;;;;;;;;;;5095962;28;20438;-64
2022/03/29 08:24:19;;;;;;;16.50;8.07;;;;;;;;;;5093855;28;20082;-63
2022/03/29 08:26:49;;;;;;;19.42;7.25;;;;;;;;;;5094586;28;20079;-63
2022/03/29 08:29:18;;;;;;;18.80;7.30;;;;;;;;;;5094681;28;20612;-63
2022/03/29 08:31:47;;;;;;;14.10;7.03;;;;;;;;;;5091907;28;20040;-65
2022/03/29 08:34:17;;;;;;;19.48;7.05;;;;;;;;;;5083995;28;20408;-66
2022/03/29 08:36:46;;;;;;;21.13;8.05;;;;;;;;;;5088170;28;20051;-65
2022/03/29 08:39:15;;;;;;;17.13;7.15;;;;;;;;;;5090924;28;20055;-66
2022/03/29 08:41:46;;;;;;;15.32;6.97;;;;;;;;;;5091589;28;20052;-64
2022/03/29 08:44:16;;;;;;;17.08;7.15;;;;;;;;;;5091722;28;20093;-64
2022/03/29 08:46:46;;;;;;;14.82;7.45;;;;;;;;;;5089888;28;20048;-66
2022/03/29 08:49:15;;;;;;;17.08;7.45;;;;;;;;;;5091317;28;20438;-65
2022/03/29 08:51:44;;;;;;;17.67;8.25;;;;;;;;;;5090877;28;20048;-64
2022/03/29 08:54:13;;;;;;;19.88;8.20;;;;;;;;;;5091919;28;20055;-65
2022/03/29 08:56:42;;;;;;;16.30;7.95;;;;;;;;;;5087311;28;20048;-64
2022/03/29 08:59:11;;;;;;;16.17;7.57;;;;;;;;;;5087868;28;20063;-65
2022/03/29 09:01:41;;;;;;;15.20;7.32;;;;;;;;;;5090881;28;20044;-64
2022/03/29 09:04:10;;;;;;;21.35;6.63;;;;;;;;;;5094360;28;20100;-64
2022/03/29 09:07:03;;;;;;;17.33;8.30;;;;;;;;;;5089821;28;20124;-65
2022/03/29 09:09:32;;;;;;;19.95;7.35;;;;;;;;;;5073134;28;20036;-66
2022/03/29 09:12:11;;;;;;;19.58;7.68;;;;;;;;;;5089001;28;20099;-65
2022/03/29 09:14:55;;;;;;;18.75;8.35;;;;;;;;;;5083385;28;20461;-65
2022/03/29 09:17:30;;;;;;;17.30;7.85;;;;;;;;;;5085479;28;20106;-64
2022/03/29 09:20:00;;;;;;;20.77;8.05;;;;;;;;;;5089163;28;20573;-65
2022/03/29 09:22:36;;;;;;;14.00;7.25;;;;;;;;;;5091843;28;20067;-65
2022/03/29 09:25:05;;;;;;;23.95;8.23;;;;;;;;;;5086890;28;20492;-65
2022/03/29 09:27:48;;;;;;;17.95;7.40;;;;;;;;;;5090793;28;20120;-65
2022/03/29 09:30:17;;;;;;;13.32;7.32;;;;;;;;;;5090725;28;20090;-65
2022/03/29 09:32:54;;;;;;;19.70;8.63;;;;;;;;;;5088503;28;20044;-66
2022/03/29 09:35:23;;;;;;;18.33;7.97;;;;;;;;;;5088387;28;20469;-65
2022/03/29 09:37:51;;;;;;;20.98;8.23;;;;;;;;;;5090325;28;20048;-65
2022/03/29 09:40:20;;;;;;;20.02;8.25;;;;;;;;;;5071296;28;20048;-64
2022/03/29 09:43:01;;;;;;;21.60;7.55;;;;;;;;;;5054659;28;20044;-65
2022/03/29 09:45:40;;;;;;;14.40;8.02;;;;;;;;;;5063130;28;20431;-65
2022/03/29 09:48:29;;;;;;;18.95;8.57;;;;;;;;;;5066738;28;20066;-65
2022/03/29 09:50:58;;;;;;;14.38;7.45;;;;;;;;;;5046133;28;20221;-65
2022/03/29 09:53:37;;;;;;;19.33;8.13;;;;;;;;;;5070596;28;20090;-65
2022/03/29 09:56:12;;;;;;;15.75;7.35;;;;;;;;;;5070454;28;20131;-65
2022/03/29 09:59:08;;;;;;;16.47;7.63;;;;;;;;;;5075945;28;20049;-64
2022/03/29 10:01:48;;;;;;;15.75;7.45;;;;;;;;;;5061039;28;20349;-66
2022/03/29 10:04:18;;;;;;;16.13;7.75;;;;;;;;;;5070676;28;20044;-65
2022/03/29 10:06:48;;;;;;;16.45;8.50;;;;;;;;;;5066489;28;20451;-65
2022/03/29 10:09:27;;;;;;;14.82;8.00;;;;;;;;;;5070204;28;20384;-65
2022/03/29 10:11:57;;;;;;;19.90;7.72;;;;;;;;;;5062168;28;20491;-65
2022/03/29 10:14:26;;;;;;;17.73;7.72;;;;;;;;;;5066873;28;20518;-65
2022/03/29 10:16:55;;;;;;;15.88;8.48;;;;;;;;;;5070973;28;20079;-64
2022/03/29 10:19:26;;;;;;;15.70;8.00;;;;;;;;;;5067347;28;20036;-65
2022/03/29 10:21:55;;;;;;;16.30;8.15;;;;;;;;;;5069563;28;20052;-65
2022/03/29 10:24:24;;;;;;;18.25;8.15;;;;;;;;;;5064497;28;20563;-65
2022/03/29 10:26:53;;;;;;;17.85;7.85;;;;;;;;;;5069455;28;20056;-65
2022/03/29 10:29:22;;;;;;;19.13;7.57;;;;;;;;;;5082300;28;20052;-65
2022/03/29 10:31:51;;;;;;;16.45;8.40;;;;;;;;;;5063991;28;20516;-64
2022/03/29 10:34:21;;;;;;;21.85;8.20;;;;;;;;;;5055859;28;20038;-65
2022/03/29 10:37:04;;;;;;;19.95;7.93;;;;;;;;;;5059225;28;20045;-65
2022/03/29 10:39:46;;;;;;;16.48;8.00;;;;;;;;;;5090255;28;20543;-65
2022/03/29 10:42:25;;;;;;;16.73;7.18;;;;;;;;;;5082183;28;20036;-65
2022/03/29 10:45:05;;;;;;;19.23;8.40;;;;;;;;;;5079730;28;20396;-65
2022/03/29 10:48:05;;;;;;;23.27;8.75;;;;;;;;;;5082432;28;20047;-64
2022/03/29 10:50:54;;;;;;;17.23;7.93;;;;;;;;;;5091537;28;20048;-65
2022/03/29 10:53:25;;;;;;;18.55;8.43;;;;;;;;;;5090141;28;20085;-65
2022/03/29 10:56:13;;;;;;;18.48;7.90;;;;;;;;;;5083614;28;20040;-66
2022/03/29 10:59:10;;;;;;;20.38;8.48;;;;;;;;;;5083714;28;20040;-64
2022/03/29 11:01:42;;;;;;;18.30;7.55;;;;;;;;;;5091032;28;20070;-65
2022/03/29 11:04:16;;;;;;;19.33;8.80;;;;;;;;;;5089422;28;20080;-65
2022/03/29 11:07:03;;;;;;;16.45;8.82;;;;;;;;;;5087589;28;20036;-65
2022/03/29 11:09:33;;;;;;;18.65;9.07;;;;;;;;;;5093679;28;20402;-65
2022/03/29 11:12:03;;;;;;;21.08;7.82;;;;;;;;;;5089534;28;20105;-65
2022/03/29 11:14:41;;;;;;;23.75;8.10;;;;;;;;;;5085499;28;20089;-65
2022/03/29 11:17:28;;;;;;;18.85;7.95;;;;;;;;;;5083101;28;20093;-65
2022/03/29 11:19:59;;;;;;;19.83;8.00;;;;;;;;;;5104251;28;20046;-66
2022/03/29 11:22:43;;;;;;;17.95;8.18;;;;;;;;;;5096526;28;20048;-65
2022/03/29 11:25:14;;;;;;;19.63;7.70;;;;;;;;;;5089000;28;20098;-64
2022/03/29 11:27:43;;;;;;;21.90;7.95;;;;;;;;;;5084017;28;20052;-65
2022/03/29 11:30:13;;;;;;;16.63;7.28;;;;;;;;;;5079401;28;20048;-64
2022/03/29 11:32:42;;;;;;;18.40;8.20;;;;;;;;;;5073101;28;20047;-65
2022/03/29 11:35:12;;;;;;;20.33;8.50;;;;;;;;;;5074952;28;20562;-65
2022/03/29 11:37:44;;;;;;;18.92;8.25;;;;;;;;;;5075198;28;20152;-64
2022/03/29 11:40:19;;;;;;;17.27;8.00;;;;;;;;;;5081006;28;20056;-64
2022/03/29 11:42:49;;;;;;;17.42;8.30;;;;;;;;;;5085472;28;20533;-64
2022/03/29 11:45:18;;;;;;;16.67;7.47;;;;;;;;;;5086102;28;20493;-64
2022/03/29 11:47:54;;;;;;;20.55;7.50;;;;;;;;;;5081572;28;20051;-64
2022/03/29 11:50:31;;;;;;;16.42;7.63;;;;;;;;;;5083605;28;20114;-64
2022/03/29 11:52:59;;;;;;;19.83;7.95;;;;;;;;;;5084108;28;20438;-64
2022/03/29 11:55:33;;;;;;;17.85;7.40;;;;;;;;;;5079827;28;20077;-64
2022/03/29 11:58:02;;;;;;;15.45;7.30;;;;;;;;;;5076716;28;20040;-64
2022/03/29 12:00:32;;;;;;;13.88;7.13;;;;;;;;;;5083704;28;20367;-65
2022/03/29 12:03:01;;;;;;;15.13;6.78;;;;;;;;;;5083539;28;20052;-65
2022/03/29 12:05:30;;;;;;;16.58;7.40;;;;;;;;;;5085001;28;20040;-64
2022/03/29 12:08:02;;;;;;;13.70;6.85;;;;;;;;;;5084726;28;20609;-64
2022/03/29 12:10:33;;;;;;;15.57;6.45;;;;;;;;;;5087683;28;20101;-64
2022/03/29 12:13:03;;;;;;;13.57;6.40;;;;;;;;;;5085601;28;20048;-64
2022/03/29 12:15:32;;;;;;;18.63;6.07;;;;;;;;;;5085324;28;20052;-63
2022/03/29 12:20:45;;;;;;;15.32;6.47;;;;;;;;;;5086509;28;20048;-63
2022/03/29 12:23:17;;;;;;;33.28;6.55;;;;;;;;;;5085742;28;20484;-63
2022/03/29 12:25:46;;;;;;;13.63;6.57;;;;;;;;;;5088433;28;20040;-64
2022/03/29 12:28:16;;;;;;;16.23;6.63;;;;;;;;;;5084365;28;20071;-64
2022/03/29 12:30:44;;;;;;;11.85;6.13;;;;;;;;;;5086370;28;20051;-63
2022/03/29 12:33:13;;;;;;;15.40;7.10;;;;;;;;;;5086194;28;20087;-64
2022/03/29 12:35:41;;;;;;;16.50;7.47;;;;;;;;;;5085931;28;20056;-64
2022/03/29 12:38:12;;;;;;;18.10;7.20;;;;;;;;;;5087549;28;20056;-63
2022/03/29 12:40:41;;;;;;;14.88;7.35;;;;;;;;;;5087593;28;20055;-64
2022/03/29 12:43:10;;;;;;;17.67;7.47;;;;;;;;;;5086213;28;20048;-64
2022/03/29 12:45:45;;;;;;;14.50;6.70;;;;;;;;;;5089088;28;20048;-64
2022/03/29 12:48:14;;;;;;;13.65;6.40;;;;;;;;;;5084772;28;20044;-65
2022/03/29 12:50:43;;;;;;;12.70;5.78;;;;;;;;;;5073462;28;20048;-66
2022/03/29 12:53:11;;;;;;;13.80;5.80;;;;;;;;;;5085551;28;20495;-64
2022/03/29 12:55:54;;;;;;;12.70;5.30;;;;;;;;;;5089140;28;20051;-65
2022/03/29 12:58:30;;;;;;;15.32;5.88;;;;;;;;;;5085360;28;20487;-65
2022/03/29 13:01:01;;;;;;;16.10;5.75;;;;;;;;;;5084856;28;20055;-64
2022/03/29 13:03:37;;;;;;;14.02;5.57;;;;;;;;;;5075295;28;20045;-65
2022/03/29 13:06:13;;;;;;;11.70;5.75;;;;;;;;;;5079101;28;20140;-66
2022/03/29 13:08:42;;;;;;;14.57;6.72;;;;;;;;;;5085564;28;20043;-65
2022/03/29 13:11:18;;;;;;;12.80;6.38;;;;;;;;;;5086226;28;20052;-65
2022/03/29 13:14:02;;;;;;;11.52;5.72;;;;;;;;;;5080355;28;20127;-65
2022/03/29 13:16:32;;;;;;;11.68;6.43;;;;;;;;;;5087266;28;20415;-65
2022/03/29 13:19:01;;;;;;;14.60;5.55;;;;;;;;;;5086662;28;20063;-66
2022/03/29 13:21:32;;;;;;;18.52;6.32;;;;;;;;;;5084520;28;20078;-65
2022/03/29 13:24:09;;;;;;;12.95;7.10;;;;;;;;;;5086971;28;20380;-65
2022/03/29 13:26:38;;;;;;;14.45;6.80;;;;;;;;;;5087364;28;20098;-65
2022/03/29 13:29:08;;;;;;;12.02;6.43;;;;;;;;;;5084622;28;20575;-65
2022/03/29 13:31:38;;;;;;;13.43;6.35;;;;;;;;;;5086085;28;20070;-65
2022/03/29 13:34:09;;;;;;;13.80;5.55;;;;;;;;;;5084283;28;20131;-66
2022/03/29 13:36:39;;;;;;;11.60;5.82;;;;;;;;;;5069180;28;20372;-65
2022/03/29 13:39:08;;;;;;;11.80;5.30;;;;;;;;;;5085066;28;20044;-65
2022/03/29 13:41:57;;;;;;;20.00;6.60;;;;;;;;;;5085355;28;20156;-64
2022/03/29 13:44:28;;;;;;;11.90;6.30;;;;;;;;;;5086005;28;20047;-64
2022/03/29 13:46:59;;;;;;;10.93;5.70;;;;;;;;;;5088937;28;20052;-66
2022/03/29 13:49:28;;;;;;;13.65;5.60;;;;;;;;;;5084196;28;20051;-65
2022/03/29 13:51:57;;;;;;;10.63;5.82;;;;;;;;;;5088734;28;20078;-65
2022/03/29 13:54:26;;;;;;;11.93;5.97;;;;;;;;;;5081611;28;20040;-66
2022/03/29 13:56:55;;;;;;;10.95;5.47;;;;;;;;;;5078021;28;20169;-64
2022/03/29 13:59:28;;;;;;;16.38;5.88;;;;;;;;;;5083965;28;20410;-65
2022/03/29 14:02:00;;;;;;;17.58;6.07;;;;;;;;;;5090570;28;20120;-65
2022/03/29 14:04:30;;;;;;;13.48;6.00;;;;;;;;;;5086841;28;20048;-66
2022/03/29 14:07:00;;;;;;;14.15;5.78;;;;;;;;;;5090772;28;20503;-65
2022/03/29 14:09:29;;;;;;;12.73;5.38;;;;;;;;;;5089261;28;20102;-65
2022/03/29 14:11:58;;;;;;;8.38;4.90;;;;;;;;;;5084321;28;20055;-65
2022/03/29 14:14:26;;;;;;;16.38;5.45;;;;;;;;;;5084795;28;20055;-65
2022/03/29 14:16:56;;;;;;;9.38;4.97;;;;;;;;;;5085461;28;20052;-65
2022/03/29 14:19:26;;;;;;;10.57;5.18;;;;;;;;;;5080421;28;20588;-65
2022/03/29 14:21:57;;;;;;;16.85;5.10;;;;;;;;;;5087476;28;20067;-65
2022/03/29 14:24:26;;;;;;;9.05;5.30;;;;;;;;;;5083979;28;20040;-65
2022/03/29 14:26:56;;;;;;;9.35;4.70;;;;;;;;;;5091072;28;20047;-65
2022/03/29 14:29:27;;;;;;;10.75;4.55;;;;;;;;;;5088161;28;20048;-64
2022/03/29 14:32:16;;;;;;;13.55;4.82;;;;;;;;;;5076574;28;20285;-65
2022/03/29 14:34:47;;;;;;;10.00;4.50;;;;;;;;;;5084284;28;20040;-64
2022/03/29 14:37:16;;;;;;;9.65;4.75;;;;;;;;;;5088977;28;20056;-66
2022/03/29 14:39:45;;;;;;;13.05;5.13;;;;;;;;;;5087895;28;20055;-65
2022/03/29 14:42:13;;;;;;;13.70;4.50;;;;;;;;;;5083545;28;20488;-65
2022/03/29 14:44:42;;;;;;;11.98;5.10;;;;;;;;;;5084512;28;20098;-65
2022/03/29 14:47:10;;;;;;;11.57;4.25;;;;;;;;;;5089437;28;20058;-65
2022/03/29 14:49:39;;;;;;;12.27;4.30;;;;;;;;;;5087271;28;20388;-66
2022/03/29 14:52:11;;;;;;;11.65;4.97;;;;;;;;;;5089028;28;20519;-65
2022/03/29 14:54:40;;;;;;;8.30;5.10;;;;;;;;;;5088232;28;20044;-65
2022/03/29 14:57:08;;;;;;;15.55;6.05;;;;;;;;;;5087212;28;20048;-65
2022/03/29 14:59:38;;;;;;;9.95;4.85;;;;;;;;;;5078871;28;20046;-65
2022/03/29 15:02:07;;;;;;;11.23;5.28;;;;;;;;;;5088926;28;20048;-65